KCHK/CHK METAR and TAF weather

Enter ICAO airport designator
Station Type Date Time Source
KCHK METAR 2019/06/26 22:15 UTC NOAA

KCHK 262215Z AUTO 17015KT 10SM CLR 32/21 A3002 RMK AO2 T03200206


Station Type Date Time Source
KCHK Decoded METAR 2019/06/26 22:15 UTC NOAA

Chickasha, Chickasha Municipal Airport, OK, United States (KCHK) 35-05-46N 097-57-58W
Jun 26, 2019 - 06:15 PM EDT / 2019.06.26 2215 UTC
Wind: from the S (170 degrees) at 17 MPH (15 KT):0
Visibility: 10 mile(s):0
Sky conditions: clear
Temperature: 89.6 F (32.0 C)
Heat index: 94.3 F (34.6 C):1
Dew Point: 69.1 F (20.6 C)
Relative Humidity: 51%
Pressure (altimeter): 30.02 in. Hg (1016 hPa)
ob: KCHK 262215Z AUTO 17015KT 10SM CLR 32/21 A3002 RMK AO2 T03200206
cycle: 22

Station Type Date Time Source
KCHK TAF UTC NOAA

Error!

Example: see airport list